createdAt,value
2023-05-09T00:01:32.617Z,40.97
2023-05-09T00:03:59.964Z,41.52
2023-05-09T00:06:27.870Z,40.66
2023-05-09T00:08:55.857Z,40.87
2023-05-09T00:11:23.328Z,40.90
2023-05-09T00:13:50.935Z,40.97
2023-05-09T00:16:18.634Z,40.73
2023-05-09T00:18:47.158Z,41.32
2023-05-09T00:21:14.372Z,41.01
2023-05-09T00:23:41.588Z,41.51
2023-05-09T00:26:10.038Z,40.78
2023-05-09T00:28:37.553Z,41.12
2023-05-09T00:31:05.658Z,41.22
2023-05-09T00:33:33.700Z,41.32
2023-05-09T00:36:01.132Z,41.32
2023-05-09T00:38:28.645Z,41.73
2023-05-09T00:40:55.873Z,41.35
2023-05-09T00:43:23.297Z,41.64
2023-05-09T00:45:50.676Z,41.33
2023-05-09T00:48:17.995Z,41.52
2023-05-09T00:50:45.729Z,41.96
2023-05-09T00:53:13.111Z,40.92
2023-05-09T00:55:40.500Z,41.47
2023-05-09T00:58:07.735Z,41.49
2023-05-09T01:00:35.186Z,41.70
2023-05-09T01:03:02.487Z,41.91
2023-05-09T01:05:35.011Z,41.45
2023-05-09T01:08:13.195Z,41.53
2023-05-09T01:11:01.280Z,41.58
2023-05-09T01:13:38.826Z,41.70
2023-05-09T01:16:18.152Z,41.96
2023-05-09T01:19:27.659Z,42.19
2023-05-09T01:21:54.868Z,41.77
2023-05-09T01:24:21.952Z,42.49
2023-05-09T01:27:13.213Z,41.92
2023-05-09T01:29:43.505Z,41.82
2023-05-09T01:32:22.955Z,42.04
2023-05-09T01:34:52.038Z,41.53
2023-05-09T01:37:20.105Z,41.68
2023-05-09T01:39:51.653Z,41.99
2023-05-09T01:42:19.250Z,42.18
2023-05-09T01:44:46.741Z,41.24
2023-05-09T01:47:16.386Z,41.78
2023-05-09T01:49:43.719Z,41.88
2023-05-09T01:52:12.411Z,41.53
2023-05-09T01:54:39.710Z,41.64
2023-05-09T01:57:07.718Z,41.76
2023-05-09T01:59:35.290Z,42.16
2023-05-09T02:02:03.530Z,41.61
2023-05-09T02:04:31.202Z,41.18
2023-05-09T02:06:58.383Z,41.52
2023-05-09T02:09:25.645Z,42.08
2023-05-09T02:11:53.844Z,41.39
2023-05-09T02:14:21.141Z,41.44
2023-05-09T02:16:48.382Z,41.26
2023-05-09T02:19:16.924Z,41.40
2023-05-09T02:21:44.267Z,41.33
2023-05-09T02:24:11.539Z,41.50
2023-05-09T02:26:38.981Z,41.42
2023-05-09T02:29:07.373Z,41.19
2023-05-09T02:31:34.981Z,41.64
2023-05-09T02:34:03.971Z,41.33
2023-05-09T02:36:32.656Z,41.98
2023-05-09T02:39:00.305Z,41.28
2023-05-09T02:41:30.873Z,41.24
2023-05-09T02:43:58.066Z,41.68
2023-05-09T02:46:25.985Z,41.88
2023-05-09T02:48:53.366Z,41.80
2023-05-09T02:51:20.609Z,41.64
2023-05-09T02:53:47.850Z,41.28
2023-05-09T02:56:15.606Z,41.58
2023-05-09T02:58:42.875Z,41.87
2023-05-09T03:01:10.196Z,41.37
2023-05-09T03:03:38.063Z,41.74
2023-05-09T03:06:06.024Z,42.27
2023-05-09T03:08:33.658Z,41.28
2023-05-09T03:11:01.042Z,41.45
2023-05-09T03:13:28.272Z,41.79
2023-05-09T03:15:55.561Z,41.77
2023-05-09T03:18:23.565Z,42.01
2023-05-09T03:20:51.008Z,42.21
2023-05-09T03:23:18.254Z,41.70
2023-05-09T03:25:45.519Z,41.82
2023-05-09T03:28:12.792Z,41.15
2023-05-09T03:30:40.093Z,41.86
2023-05-09T03:33:07.989Z,41.48
2023-05-09T03:35:35.436Z,41.26
2023-05-09T03:38:02.759Z,41.54
2023-05-09T03:40:30.176Z,41.54
2023-05-09T03:42:57.430Z,41.89
2023-05-09T03:45:24.746Z,41.47
2023-05-09T03:47:52.120Z,41.75
2023-05-09T03:50:19.308Z,41.59
2023-05-09T03:52:46.637Z,41.14
2023-05-09T03:55:14.017Z,41.36
2023-05-09T03:57:41.452Z,41.54
2023-05-09T04:00:10.270Z,41.90
2023-05-09T04:02:37.632Z,41.90
2023-05-09T04:05:05.337Z,42.18
2023-05-09T04:07:32.614Z,41.62
2023-05-09T04:10:00.061Z,41.47
2023-05-09T04:12:27.334Z,41.87
2023-05-09T04:14:54.533Z,41.67
2023-05-09T04:17:21.879Z,42.55
2023-05-09T04:19:49.249Z,41.54
2023-05-09T04:22:16.756Z,42.06
2023-05-09T04:24:44.020Z,42.34
2023-05-09T04:27:11.488Z,43.04
2023-05-09T04:29:39.033Z,42.20
2023-05-09T04:32:06.486Z,42.50
2023-05-09T04:34:33.863Z,42.12
2023-05-09T04:37:01.185Z,41.77
2023-05-09T04:39:28.482Z,42.09
2023-05-09T04:41:55.901Z,41.70
2023-05-09T04:44:24.465Z,42.03
2023-05-09T04:46:52.164Z,41.94
2023-05-09T04:49:19.416Z,42.46
2023-05-09T04:51:46.789Z,42.69
2023-05-09T04:54:14.008Z,42.06
2023-05-09T04:56:41.299Z,42.36
2023-05-09T04:59:08.495Z,43.13
2023-05-09T05:01:36.094Z,43.38
2023-05-09T05:04:03.360Z,42.90
2023-05-09T05:06:31.964Z,42.67
2023-05-09T05:08:59.670Z,43.69
2023-05-09T05:11:26.871Z,42.17
2023-05-09T05:13:55.989Z,43.05
2023-05-09T05:16:23.404Z,42.68
2023-05-09T05:18:50.622Z,43.00
2023-05-09T05:21:17.876Z,43.44
2023-05-09T05:23:45.143Z,43.12
2023-05-09T05:26:12.299Z,42.87
2023-05-09T05:28:39.584Z,42.48
2023-05-09T05:31:06.971Z,42.97
2023-05-09T05:33:34.644Z,42.18
2023-05-09T05:36:02.136Z,42.61
2023-05-09T05:38:29.521Z,43.16
2023-05-09T05:40:56.801Z,43.16
2023-05-09T05:43:24.045Z,43.27
2023-05-09T05:45:51.353Z,42.55
2023-05-09T05:48:18.628Z,42.51
2023-05-09T05:50:45.913Z,41.37
2023-05-09T05:53:13.127Z,42.45
2023-05-09T05:55:40.533Z,42.05
2023-05-09T05:58:08.124Z,42.26
2023-05-09T06:00:36.285Z,42.37
2023-05-09T06:03:03.684Z,41.76
2023-05-09T06:05:31.171Z,42.25
2023-05-09T06:07:58.479Z,42.06
2023-05-09T06:10:26.130Z,42.17
2023-05-09T06:12:53.513Z,41.58
2023-05-09T06:15:20.794Z,42.44
2023-05-09T06:17:48.109Z,42.73
2023-05-09T06:20:15.295Z,42.13
2023-05-09T06:22:42.605Z,42.09
2023-05-09T06:25:14.230Z,42.04
2023-05-09T06:27:42.488Z,40.68
2023-05-09T06:32:40.505Z,40.46
2023-05-09T06:35:08.022Z,39.92
2023-05-09T06:37:35.290Z,39.68
2023-05-09T06:40:02.615Z,39.98
2023-05-09T06:42:32.635Z,40.43
2023-05-09T06:44:59.903Z,40.63
2023-05-09T06:47:27.176Z,40.31
2023-05-09T06:49:54.751Z,39.54
2023-05-09T06:52:22.217Z,40.00
2023-05-09T06:54:49.431Z,39.77
2023-05-09T06:57:16.761Z,39.86
2023-05-09T06:59:44.885Z,39.10
2023-05-09T07:02:12.076Z,39.81
2023-05-09T07:04:39.317Z,38.46
2023-05-09T07:07:06.675Z,39.68
2023-05-09T07:09:34.081Z,40.89
2023-05-09T07:12:01.758Z,40.16
2023-05-09T07:14:29.069Z,39.66
2023-05-09T07:17:05.122Z,40.41
2023-05-09T07:19:41.402Z,40.21
2023-05-09T07:22:08.712Z,40.70
2023-05-09T07:24:36.295Z,39.81
2023-05-09T07:27:03.928Z,41.09
2023-05-09T07:29:32.071Z,41.39
2023-05-09T07:31:59.295Z,40.64
2023-05-09T07:34:26.711Z,40.84
2023-05-09T07:36:54.422Z,39.98
2023-05-09T07:39:21.618Z,39.56
2023-05-09T07:41:49.015Z,40.06
2023-05-09T07:44:16.317Z,39.81
2023-05-09T07:46:43.561Z,39.83
2023-05-09T07:49:10.773Z,40.19
2023-05-09T07:51:38.069Z,39.50
2023-05-09T07:54:05.700Z,40.44
2023-05-09T07:56:33.448Z,40.34
2023-05-09T07:59:00.874Z,39.49
2023-05-09T08:01:28.184Z,39.79
2023-05-09T08:03:55.637Z,39.43
2023-05-09T08:06:22.939Z,39.00
2023-05-09T08:08:50.387Z,39.72
2023-05-09T08:11:17.869Z,39.06
2023-05-09T08:13:45.105Z,38.96
2023-05-09T08:16:12.362Z,39.36
2023-05-09T08:18:39.583Z,38.62
2023-05-09T08:21:06.880Z,38.22
2023-05-09T08:23:34.532Z,38.37
2023-05-09T08:26:01.809Z,38.67
2023-05-09T08:28:30.044Z,38.12
2023-05-09T08:30:57.867Z,37.64
2023-05-09T08:33:25.941Z,38.44
2023-05-09T08:35:53.428Z,37.05
2023-05-09T08:38:21.197Z,37.96
2023-05-09T08:40:48.525Z,38.23
2023-05-09T08:43:18.227Z,37.21
2023-05-09T08:45:53.381Z,36.97
2023-05-09T08:48:21.309Z,36.75
2023-05-09T08:50:48.555Z,36.83
2023-05-09T08:53:16.975Z,37.20
2023-05-09T08:55:44.841Z,35.62
2023-05-09T08:58:13.482Z,35.99
2023-05-09T09:00:41.489Z,35.45
2023-05-09T09:03:09.152Z,34.95
2023-05-09T09:05:41.243Z,35.25
2023-05-09T09:08:10.171Z,34.83
2023-05-09T09:10:40.620Z,34.41
2023-05-09T09:13:08.669Z,33.87
2023-05-09T09:15:37.099Z,32.46
2023-05-09T09:18:09.182Z,32.85
2023-05-09T09:20:48.916Z,32.98
2023-05-09T09:23:20.988Z,31.39
2023-05-09T09:25:48.588Z,30.36
2023-05-09T09:28:15.921Z,30.17
2023-05-09T09:30:52.344Z,29.07
2023-05-09T09:33:23.583Z,29.02
2023-05-09T09:35:51.202Z,30.97
2023-05-09T09:38:19.652Z,31.43
2023-05-09T09:40:55.054Z,31.98
2023-05-09T09:43:29.155Z,32.98
2023-05-09T09:45:57.227Z,32.77
2023-05-09T09:48:26.178Z,32.10
2023-05-09T09:50:59.264Z,31.16
2023-05-09T09:53:30.946Z,30.24
2023-05-09T09:55:58.645Z,30.00
2023-05-09T09:58:26.010Z,30.57
2023-05-09T10:01:09.085Z,29.34
2023-05-09T10:03:37.682Z,28.36
2023-05-09T10:06:05.495Z,28.30
2023-05-09T10:08:33.083Z,28.21
2023-05-09T10:11:00.673Z,28.32
2023-05-09T10:13:28.349Z,29.72
2023-05-09T10:15:58.064Z,30.44
2023-05-09T10:18:27.960Z,30.14
2023-05-09T10:20:55.373Z,30.87
2023-05-09T10:23:23.302Z,31.12
2023-05-09T10:26:18.354Z,31.18
2023-05-09T10:28:46.581Z,31.45
2023-05-09T10:31:27.247Z,30.32
2023-05-09T10:33:55.950Z,31.07
2023-05-09T10:36:24.178Z,30.38
2023-05-09T10:38:53.828Z,29.49
2023-05-09T10:41:22.159Z,30.15
2023-05-09T10:43:49.842Z,29.67
2023-05-09T10:46:17.753Z,29.14
2023-05-09T10:48:45.569Z,29.97
2023-05-09T10:51:13.186Z,30.30
2023-05-09T10:53:42.533Z,29.99
2023-05-09T10:56:09.814Z,30.14
2023-05-09T10:58:39.037Z,30.01
2023-05-09T11:01:06.506Z,29.96
2023-05-09T11:03:53.429Z,29.73
2023-05-09T11:06:53.978Z,30.16
2023-05-09T11:09:29.930Z,30.22
2023-05-09T11:12:01.708Z,30.07
2023-05-09T11:14:45.042Z,29.68
2023-05-09T11:17:21.941Z,30.31
2023-05-09T11:19:49.268Z,30.66
2023-05-09T11:22:20.637Z,31.22
2023-05-09T11:24:51.492Z,32.58
2023-05-09T11:27:23.025Z,31.55
2023-05-09T11:29:51.855Z,31.55
2023-05-09T11:32:19.716Z,32.14
2023-05-09T11:34:47.294Z,32.10
2023-05-09T11:37:16.953Z,32.40
2023-05-09T11:40:00.614Z,31.84
2023-05-09T11:42:27.987Z,31.48
2023-05-09T11:44:56.601Z,33.01
2023-05-09T11:47:24.113Z,32.85
2023-05-09T11:49:51.786Z,33.40
2023-05-09T11:52:19.446Z,32.70
2023-05-09T11:54:46.726Z,32.73
2023-05-09T11:57:17.387Z,32.85
2023-05-09T11:59:45.512Z,33.60
2023-05-09T12:02:12.934Z,32.95
2023-05-09T12:04:40.674Z,33.04
2023-05-09T12:07:08.036Z,33.06
2023-05-09T12:09:38.143Z,32.57
2023-05-09T12:12:12.183Z,32.55
2023-05-09T12:14:42.237Z,32.43
2023-05-09T12:17:09.824Z,33.35
2023-05-09T12:19:37.212Z,32.96
2023-05-09T12:22:06.674Z,31.81
2023-05-09T12:24:35.862Z,32.56
2023-05-09T12:27:03.113Z,31.60
2023-05-09T12:29:30.772Z,32.51
2023-05-09T12:31:58.268Z,32.85
2023-05-09T12:34:25.484Z,33.19
2023-05-09T12:36:53.493Z,32.66
2023-05-09T12:39:24.584Z,32.66
2023-05-09T12:42:01.182Z,31.65
2023-05-09T12:44:29.865Z,33.33
2023-05-09T12:47:03.656Z,32.10
2023-05-09T12:49:31.555Z,32.59
2023-05-09T12:52:02.284Z,31.93
2023-05-09T12:54:31.178Z,32.08
2023-05-09T12:57:02.096Z,32.42
2023-05-09T12:59:30.280Z,33.08
2023-05-09T13:01:58.497Z,31.77
2023-05-09T13:04:26.785Z,32.33
2023-05-09T13:06:58.059Z,31.90
2023-05-09T13:09:26.050Z,31.99
2023-05-09T13:11:53.427Z,31.89
2023-05-09T13:14:21.790Z,32.82
2023-05-09T13:16:49.058Z,31.89
2023-05-09T13:19:16.454Z,33.25
2023-05-09T13:21:43.732Z,32.47
2023-05-09T13:24:11.007Z,32.33
2023-05-09T13:26:38.291Z,32.27
2023-05-09T13:29:05.532Z,32.64
2023-05-09T13:31:33.944Z,32.83
2023-05-09T13:34:01.156Z,32.56
2023-05-09T13:36:28.434Z,32.19
2023-05-09T13:38:55.792Z,32.70
2023-05-09T13:41:23.977Z,32.76
2023-05-09T13:43:51.325Z,32.59
2023-05-09T13:46:18.614Z,32.29
2023-05-09T13:48:47.685Z,32.65
2023-05-09T13:51:15.125Z,32.94
2023-05-09T13:53:42.426Z,33.49
2023-05-09T13:56:09.823Z,33.18
2023-05-09T13:58:37.395Z,32.81
2023-05-09T14:01:04.814Z,32.10
2023-05-09T14:03:32.242Z,32.73
2023-05-09T14:05:59.866Z,33.60
2023-05-09T14:08:27.215Z,33.02
2023-05-09T14:10:54.753Z,33.04
2023-05-09T14:13:22.316Z,32.21
2023-05-09T14:15:49.736Z,32.34
2023-05-09T14:18:19.182Z,32.02
2023-05-09T14:20:48.335Z,32.41
2023-05-09T14:23:15.629Z,32.65
2023-05-09T14:25:42.902Z,33.02
2023-05-09T14:28:10.263Z,32.39
2023-05-09T14:30:37.655Z,32.43
2023-05-09T14:33:04.880Z,32.68
2023-05-09T14:35:34.198Z,33.44
2023-05-09T14:38:01.822Z,32.47
2023-05-09T14:40:32.211Z,33.17
2023-05-09T14:43:02.364Z,32.52
2023-05-09T14:45:30.361Z,33.72
2023-05-09T14:47:57.782Z,32.87
2023-05-09T14:50:25.823Z,32.29
2023-05-09T14:52:53.022Z,33.61
2023-05-09T14:55:21.357Z,33.73
2023-05-09T14:57:48.676Z,34.00
2023-05-09T15:00:21.390Z,33.45
2023-05-09T15:02:50.134Z,33.38
2023-05-09T15:05:17.846Z,33.82
2023-05-09T15:07:46.079Z,33.67
2023-05-09T15:10:13.533Z,33.93
2023-05-09T15:12:41.231Z,34.90
2023-05-09T15:15:14.853Z,34.66
2023-05-09T15:17:43.090Z,35.16
2023-05-09T15:20:17.697Z,34.61
2023-05-09T15:22:46.300Z,34.91
2023-05-09T15:25:13.560Z,35.27
2023-05-09T15:27:40.870Z,35.19
2023-05-09T15:30:08.858Z,35.29
2023-05-09T15:32:41.704Z,35.94
2023-05-09T15:35:09.093Z,36.17
2023-05-09T15:37:37.172Z,35.36
2023-05-09T15:40:05.229Z,35.45
2023-05-09T15:42:32.749Z,36.13
2023-05-09T15:44:59.993Z,35.51
2023-05-09T15:47:27.610Z,35.71
2023-05-09T15:49:54.846Z,35.75
2023-05-09T15:52:22.245Z,36.16
2023-05-09T15:54:50.392Z,35.47
2023-05-09T15:57:18.194Z,35.87
2023-05-09T15:59:45.815Z,36.27
2023-05-09T16:02:13.099Z,35.79
2023-05-09T16:04:40.342Z,36.21
2023-05-09T16:07:08.660Z,35.75
2023-05-09T16:09:37.251Z,35.87
2023-05-09T16:12:05.439Z,36.92
2023-05-09T16:14:33.174Z,35.80
2023-05-09T16:17:01.099Z,36.33
2023-05-09T16:19:28.675Z,36.82
2023-05-09T16:21:56.097Z,37.22
2023-05-09T16:24:23.561Z,36.69
2023-05-09T16:26:50.773Z,36.84
2023-05-09T16:29:18.065Z,37.11
2023-05-09T16:31:45.333Z,37.21
2023-05-09T16:34:12.778Z,37.39
2023-05-09T16:36:40.049Z,37.35
2023-05-09T16:39:07.569Z,37.43
2023-05-09T16:41:34.844Z,37.79
2023-05-09T16:44:02.168Z,37.89
2023-05-09T16:46:29.681Z,38.05
2023-05-09T16:48:56.964Z,37.93
2023-05-09T16:51:24.250Z,37.93
2023-05-09T16:53:51.560Z,38.04
2023-05-09T16:56:18.897Z,38.39
2023-05-09T16:58:46.201Z,38.44
2023-05-09T17:01:13.452Z,38.18
2023-05-09T17:03:40.699Z,38.16
2023-05-09T17:06:08.009Z,39.03
2023-05-09T17:08:35.452Z,38.67
2023-05-09T17:11:02.840Z,38.74
2023-05-09T17:13:30.439Z,39.38
2023-05-09T17:15:58.269Z,38.83
2023-05-09T17:18:36.471Z,39.38
2023-05-09T17:21:05.052Z,40.33
2023-05-09T17:23:32.545Z,40.19
2023-05-09T17:25:59.791Z,39.93
2023-05-09T17:28:27.185Z,40.71
2023-05-09T17:30:54.532Z,40.63
2023-05-09T17:33:21.897Z,40.64
2023-05-09T17:35:50.094Z,39.73
2023-05-09T17:38:17.676Z,40.14
2023-05-09T17:40:45.047Z,39.45
2023-05-09T17:43:15.784Z,40.35
2023-05-09T17:45:43.267Z,39.96
2023-05-09T17:48:10.754Z,40.24
2023-05-09T17:50:37.971Z,39.64
2023-05-09T17:53:08.462Z,39.84
2023-05-09T17:55:35.988Z,39.84
2023-05-09T17:58:03.251Z,40.34
2023-05-09T18:00:30.631Z,39.79
2023-05-09T18:03:00.395Z,39.27
2023-05-09T18:05:27.932Z,39.21
2023-05-09T18:07:56.745Z,39.70
2023-05-09T18:10:23.979Z,39.13
2023-05-09T18:12:52.776Z,39.76
2023-05-09T18:15:20.093Z,39.74
2023-05-09T18:17:49.260Z,40.00
2023-05-09T18:20:16.895Z,39.66
2023-05-09T18:22:44.548Z,40.16
2023-05-09T18:25:12.068Z,40.29
2023-05-09T18:27:39.368Z,41.13
2023-05-09T18:30:07.379Z,40.23
2023-05-09T18:32:34.874Z,40.45
2023-05-09T18:35:02.227Z,40.33
2023-05-09T18:37:29.695Z,40.34
2023-05-09T18:39:57.170Z,41.05
2023-05-09T18:42:24.472Z,40.71
2023-05-09T18:44:51.730Z,41.01
2023-05-09T18:47:19.067Z,41.14
2023-05-09T18:49:47.540Z,41.56
2023-05-09T18:52:15.356Z,41.90
2023-05-09T18:54:42.606Z,41.72
2023-05-09T18:57:09.959Z,42.16
2023-05-09T18:59:37.523Z,42.47
2023-05-09T19:02:04.920Z,42.40
2023-05-09T19:04:32.313Z,41.91
2023-05-09T19:06:59.810Z,42.66
2023-05-09T19:09:27.086Z,42.18
2023-05-09T19:11:54.507Z,43.04
2023-05-09T19:14:21.887Z,43.05
2023-05-09T19:16:49.297Z,42.87
2023-05-09T19:19:16.514Z,43.21
2023-05-09T19:21:44.168Z,43.53
2023-05-09T19:24:11.472Z,43.19
2023-05-09T19:26:38.687Z,43.67
2023-05-09T19:29:08.181Z,43.73
2023-05-09T19:31:36.764Z,43.90
2023-05-09T19:34:04.138Z,43.47
2023-05-09T19:36:31.475Z,43.48
2023-05-09T19:38:58.744Z,44.05
2023-05-09T19:41:26.195Z,44.41
2023-05-09T19:43:53.621Z,44.08
2023-05-09T19:46:22.292Z,43.88
2023-05-09T19:48:49.522Z,44.40
2023-05-09T19:51:16.751Z,44.96
2023-05-09T19:53:44.237Z,44.84
2023-05-09T19:56:12.655Z,45.26
2023-05-09T19:58:40.006Z,45.40
2023-05-09T20:01:07.445Z,45.43
2023-05-09T20:03:38.764Z,44.58
2023-05-09T20:06:07.732Z,44.54
2023-05-09T20:08:35.618Z,44.93
2023-05-09T20:11:03.253Z,44.47
2023-05-09T20:13:31.943Z,44.67
2023-05-09T20:16:00.167Z,45.80
2023-05-09T20:18:27.497Z,45.85
2023-05-09T20:20:54.929Z,45.47
2023-05-09T20:23:22.410Z,45.98
2023-05-09T20:25:49.748Z,46.38
2023-05-09T20:28:20.254Z,46.18
2023-05-09T20:30:47.663Z,46.53
2023-05-09T20:33:15.447Z,46.22
2023-05-09T20:35:43.610Z,46.60
2023-05-09T20:38:11.674Z,46.04
2023-05-09T20:40:39.299Z,46.28
2023-05-09T20:43:06.558Z,46.41
2023-05-09T20:45:34.067Z,47.15
2023-05-09T20:48:02.059Z,46.78
2023-05-09T20:50:29.752Z,47.57
2023-05-09T20:52:56.967Z,47.10
2023-05-09T20:55:24.568Z,47.01
2023-05-09T20:57:51.946Z,47.82
2023-05-09T21:00:19.308Z,47.57
2023-05-09T21:02:46.867Z,47.44
2023-05-09T21:05:14.290Z,48.03
2023-05-09T21:07:41.747Z,48.34
2023-05-09T21:10:10.453Z,47.99
2023-05-09T21:12:38.113Z,48.67
2023-05-09T21:15:05.921Z,48.65
2023-05-09T21:17:33.364Z,48.50
2023-05-09T21:20:01.020Z,48.82
2023-05-09T21:22:28.627Z,49.91
2023-05-09T21:24:55.917Z,49.47
2023-05-09T21:27:23.311Z,48.72
2023-05-09T21:29:50.908Z,48.91
2023-05-09T21:32:18.570Z,49.15
2023-05-09T21:34:47.542Z,49.95
2023-05-09T21:37:15.220Z,49.19
2023-05-09T21:39:42.444Z,49.35
2023-05-09T21:42:09.651Z,49.42
2023-05-09T21:44:36.919Z,49.80
2023-05-09T21:47:04.268Z,49.44
2023-05-09T21:49:31.503Z,49.74
2023-05-09T21:51:58.876Z,49.83
2023-05-09T21:54:26.226Z,50.54
2023-05-09T21:56:53.433Z,50.62
2023-05-09T21:59:22.252Z,49.96
2023-05-09T22:01:49.483Z,50.62
2023-05-09T22:04:16.957Z,50.02
2023-05-09T22:06:44.473Z,50.56
2023-05-09T22:09:11.746Z,50.17
2023-05-09T22:11:39.809Z,50.61
2023-05-09T22:14:07.408Z,50.59
2023-05-09T22:16:34.658Z,51.04
2023-05-09T22:19:01.940Z,51.74
2023-05-09T22:21:29.340Z,52.55
2023-05-09T22:23:56.638Z,53.09
2023-05-09T22:26:23.864Z,54.08
2023-05-09T22:28:51.071Z,53.98
2023-05-09T22:31:18.488Z,52.61
2023-05-09T22:33:45.734Z,53.28
2023-05-09T22:36:14.408Z,53.21
2023-05-09T22:38:42.378Z,53.70
2023-05-09T22:41:09.625Z,53.71
2023-05-09T22:43:39.624Z,54.03
2023-05-09T22:46:07.275Z,53.56
2023-05-09T22:48:34.711Z,53.97
2023-05-09T22:51:02.180Z,53.88
2023-05-09T22:53:30.451Z,54.51
2023-05-09T22:55:57.878Z,56.29
2023-05-09T22:58:25.211Z,55.62
2023-05-09T23:00:52.466Z,53.51
2023-05-09T23:03:19.855Z,54.71
2023-05-09T23:05:47.126Z,55.45
2023-05-09T23:08:14.344Z,54.75
2023-05-09T23:10:42.408Z,55.74
2023-05-09T23:13:10.058Z,55.38
2023-05-09T23:15:37.392Z,55.46
2023-05-09T23:18:04.677Z,55.33
2023-05-09T23:20:32.976Z,55.44
2023-05-09T23:23:00.213Z,55.42
2023-05-09T23:25:27.425Z,55.76
2023-05-09T23:27:54.914Z,55.46
2023-05-09T23:30:22.246Z,56.21
2023-05-09T23:32:49.930Z,56.32
2023-05-09T23:35:17.195Z,56.99
2023-05-09T23:37:44.419Z,57.38
2023-05-09T23:40:12.400Z,57.73
2023-05-09T23:42:39.929Z,57.84
2023-05-09T23:45:07.616Z,58.54
2023-05-09T23:47:35.176Z,59.05
2023-05-09T23:50:02.439Z,58.81
2023-05-09T23:52:29.769Z,59.23
2023-05-09T23:54:57.038Z,59.37
2023-05-09T23:57:24.260Z,60.82
2023-05-09T23:59:51.478Z,61.33
